KLGA/LGA METAR and TAF weather

Enter ICAO airport designator
Station Type Date Time Source
KLGA METAR 2021/09/25 12:51 UTC NOAA

KLGA 251251Z 03004KT 10SM FEW050 FEW250 19/12 A3005 RMK AO2 SLP174 T01890117 $


Station Type Date Time Source
KLGA Decoded METAR 2021/09/25 12:51 UTC NOAA

NEW YORK LA GUARDIA AIRPORT , NY, United States (KLGA) 40-47N 73-53W 11M
Sep 25, 2021 - 08:51 AM EDT / 2021.09.25 1251 UTC
Wind: from the NNE (030 degrees) at 5 MPH (4 KT):0
Visibility: 10 mile(s):0
Sky conditions: mostly clear
Temperature: 66.0 F (18.9 C)
Dew Point: 53.1 F (11.7 C)
Relative Humidity: 62%
Pressure (altimeter): 30.05 in. Hg (1017 hPa)
ob: KLGA 251251Z 03004KT 10SM FEW050 FEW250 19/12 A3005 RMK AO2 SLP174 T01890117
cycle: 13

Station Type Date Time Source
KLGA TAF 2021/09/25 12:40 UTC NOAA

TAF KLGA 251138Z 2512/2618 03006KT P6SM FEW050 FEW250
FM252100 15008KT P6SM SCT050 SCT100 BKN250
FM260000 25007KT P6SM SCT050 SCT100 BKN250
FM260300 29006KT P6SM SCT050 BKN100 BKN250
FM260900 32009KT P6SM FEW050 SCT100 SCT250
FM261400 32012G18KT P6SM FEW050 FEW250
FM261700 31014G20KT P6SM FEW050

Example: see airport list